Wichita, KS (67277)

12:54 PM CDT on August 28, 2016 (GMT -0500)
Near the airport | | Change Station

Elev 1348 ft 37.65 °N, 97.44 °W | Updated 6 seconds ago

Scattered Clouds
Scattered Clouds
87.4 °F
Feels Like 92 °F
N
5.0
Wind Variable Wind from South
Gusts 10.0 mph

Today
High -- | Low -- °F
--% Chance of Precip.
Yesterday
High -- | Low -- °F
Precip. -- in
Pressure 30.06 in
Visibility 10.0 miles
Clouds Scattered Clouds 25000 ft
Heat Index 92 °F
Dew Point 69 °F
Humidity 55%
Rainfall 0.00 in
Snow Depth Not available.
6:56 AM 8:03 PM
Waning Crescent, 14% visible
METAR KICT 281653Z 16006KT 10SM SCT250 30/21 A3011 RMK AO2 SLP179 T03000206
Pressure 30.06 in
Visibility 10.0 miles
Clouds Scattered Clouds 25000 ft
Heat Index 92 °F
Dew Point 69 °F
Humidity 55%
Rainfall 0.00 in
Snow Depth Not available.
6:56 AM 8:03 PM
Waning Crescent, 14% visible
METAR KICT 281653Z 16006KT 10SM SCT250 30/21 A3011 RMK AO2 SLP179 T03000206

10-Day Weather Forecast

Almanac

Astronomy

Aug. 28, 2016 Rise Set
Actual Time
Civil Twilight
Nautical Twilight
Astronomical Twilight
Moon
Length of Visible Light
Length of Day
Tomorrow will be .
, % of the Moon is Illuminated

Today's Extremes

State Highs State Lows

Community

WunderPhotos

Upload Photos

1,935,639 photos uploaded!

WunderBlog® & News

Nearby

Air Quality

  Air Quality AQ Index Pollutant
Not available.

Snow Depth

Station Depth Elevation

Earthquake Activity

City Distance Mag. Time & Date
Minimum magnitude displayed is 2.5.

Coastal Water Temperatures

Place Temperature

Stations

Nearby Weather Stations

Station Location Temp. Windchill Dew Point Humidity Wind Precip. Elev Updated Type
                   

Watches & Warnings

There are currently no watches in effect.